sensor_id;sensor_type;location;lat;lon;timestamp;pressure;altitude;pressure_sealevel;temperature;humidity
10806;BME280;5455;53.224;6.000;2022-11-20T00:01:28;101423.66;;;0.01;100.00
10806;BME280;5455;53.224;6.000;2022-11-20T00:03:56;101416.03;;;0.03;100.00
10806;BME280;5455;53.224;6.000;2022-11-20T00:06:25;101409.28;;;0.00;100.00
10806;BME280;5455;53.224;6.000;2022-11-20T00:08:55;101417.41;;;0.06;100.00
10806;BME280;5455;53.224;6.000;2022-11-20T00:11:24;101417.13;;;0.07;100.00
10806;BME280;5455;53.224;6.000;2022-11-20T00:13:54;101414.94;;;0.09;100.00
10806;BME280;5455;53.224;6.000;2022-11-20T00:16:23;101405.72;;;0.10;100.00
10806;BME280;5455;53.224;6.000;2022-11-20T00:18:51;101397.34;;;0.12;100.00
10806;BME280;5455;53.224;6.000;2022-11-20T00:21:23;101403.81;;;0.16;100.00
10806;BME280;5455;53.224;6.000;2022-11-20T00:23:53;101397.59;;;0.20;100.00
10806;BME280;5455;53.224;6.000;2022-11-20T00:26:21;101407.88;;;0.23;100.00
10806;BME280;5455;53.224;6.000;2022-11-20T00:28:51;101401.59;;;0.28;100.00
10806;BME280;5455;53.224;6.000;2022-11-20T00:31:19;101400.00;;;0.27;100.00
10806;BME280;5455;53.224;6.000;2022-11-20T00:33:46;101393.22;;;0.29;100.00
10806;BME280;5455;53.224;6.000;2022-11-20T00:36:18;101391.53;;;0.33;100.00
10806;BME280;5455;53.224;6.000;2022-11-20T00:38:46;101395.06;;;0.34;100.00
10806;BME280;5455;53.224;6.000;2022-11-20T00:41:15;101391.03;;;0.31;100.00
10806;BME280;5455;53.224;6.000;2022-11-20T00:43:42;101394.03;;;0.30;100.00
10806;BME280;5455;53.224;6.000;2022-11-20T00:46:15;101398.91;;;0.28;100.00
10806;BME280;5455;53.224;6.000;2022-11-20T00:48:43;101389.69;;;0.29;100.00
10806;BME280;5455;53.224;6.000;2022-11-20T00:51:12;101382.09;;;0.26;100.00
10806;BME280;5455;53.224;6.000;2022-11-20T00:53:40;101392.69;;;0.22;100.00
10806;BME280;5455;53.224;6.000;2022-11-20T00:56:10;101394.56;;;0.22;100.00
10806;BME280;5455;53.224;6.000;2022-11-20T00:58:40;101391.59;;;0.23;100.00
10806;BME280;5455;53.224;6.000;2022-11-20T01:01:18;101391.91;;;0.17;100.00
10806;BME280;5455;53.224;6.000;2022-11-20T01:03:48;101386.22;;;0.08;100.00
10806;BME280;5455;53.224;6.000;2022-11-20T01:06:20;101386.22;;;0.08;100.00
10806;BME280;5455;53.224;6.000;2022-11-20T01:08:49;101386.50;;;0.07;100.00
10806;BME280;5455;53.224;6.000;2022-11-20T01:11:36;101389.22;;;0.12;100.00
10806;BME280;5455;53.224;6.000;2022-11-20T01:14:09;101387.03;;;0.14;100.00
10806;BME280;5455;53.224;6.000;2022-11-20T01:16:39;101388.38;;;0.16;100.00
10806;BME280;5455;53.224;6.000;2022-11-20T01:19:13;101389.44;;;0.20;100.00
10806;BME280;5455;53.224;6.000;2022-11-20T01:21:45;101384.28;;;0.24;100.00
10806;BME280;5455;53.224;6.000;2022-11-20T01:24:15;101382.66;;;0.23;100.00
10806;BME280;5455;53.224;6.000;2022-11-20T01:26:44;101377.22;;;0.23;100.00
10806;BME280;5455;53.224;6.000;2022-11-20T01:29:24;101375.88;;;0.25;100.00
10806;BME280;5455;53.224;6.000;2022-11-20T01:31:52;101371.50;;;0.29;100.00
10806;BME280;5455;53.224;6.000;2022-11-20T01:34:20;101372.56;;;0.33;100.00
10806;BME280;5455;53.224;6.000;2022-11-20T01:36:49;101384.22;;;0.39;100.00
10806;BME280;5455;53.224;6.000;2022-11-20T01:39:19;101380.41;;;0.40;100.00
10806;BME280;5455;53.224;6.000;2022-11-20T01:41:47;101371.44;;;0.39;100.00
10806;BME280;5455;53.224;6.000;2022-11-20T01:44:51;101369.84;;;0.38;100.00
10806;BME280;5455;53.224;6.000;2022-11-20T01:47:40;101372.28;;;0.40;100.00
10806;BME280;5455;53.224;6.000;2022-11-20T01:50:23;101368.47;;;0.41;100.00
10806;BME280;5455;53.224;6.000;2022-11-20T01:53:08;101366.03;;;0.39;100.00
10806;BME280;5455;53.224;6.000;2022-11-20T01:55:43;101359.56;;;0.35;100.00
10806;BME280;5455;53.224;6.000;2022-11-20T01:58:11;101355.75;;;0.36;100.00
10806;BME280;5455;53.224;6.000;2022-11-20T02:00:40;101354.09;;;0.40;100.00
10806;BME280;5455;53.224;6.000;2022-11-20T02:03:09;101357.88;;;0.39;100.00
10806;BME280;5455;53.224;6.000;2022-11-20T02:08:42;101337.59;;;0.32;100.00
10806;BME280;5455;53.224;6.000;2022-11-20T02:11:09;101341.41;;;0.36;100.00
10806;BME280;5455;53.224;6.000;2022-11-20T02:13:36;101342.47;;;0.35;100.00
10806;BME280;5455;53.224;6.000;2022-11-20T02:16:23;101347.03;;;0.39;100.00
10806;BME280;5455;53.224;6.000;2022-11-20T02:18:51;101336.19;;;0.44;100.00
10806;BME280;5455;53.224;6.000;2022-11-20T02:24:18;101327.19;;;0.49;100.00
10806;BME280;5455;53.224;6.000;2022-11-20T02:26:52;101318.81;;;0.45;100.00
10806;BME280;5455;53.224;6.000;2022-11-20T02:29:26;101315.88;;;0.42;100.00
10806;BME280;5455;53.224;6.000;2022-11-20T02:31:54;101323.44;;;0.45;100.00
10806;BME280;5455;53.224;6.000;2022-11-20T02:34:22;101317.22;;;0.44;100.00
10806;BME280;5455;53.224;6.000;2022-11-20T02:36:50;101322.91;;;0.43;100.00
10806;BME280;5455;53.224;6.000;2022-11-20T02:39:20;101310.97;;;0.44;100.00
10806;BME280;5455;53.224;6.000;2022-11-20T02:41:47;101303.34;;;0.46;100.00
10806;BME280;5455;53.224;6.000;2022-11-20T02:44:14;101305.25;;;0.45;100.00
10806;BME280;5455;53.224;6.000;2022-11-20T02:46:41;101316.34;;;0.49;100.00
10806;BME280;5455;53.224;6.000;2022-11-20T02:49:08;101312.25;;;0.57;100.00
10806;BME280;5455;53.224;6.000;2022-11-20T02:51:35;101308.13;;;0.64;100.00
10806;BME280;5455;53.224;6.000;2022-11-20T02:54:03;101306.25;;;0.60;100.00
10806;BME280;5455;53.224;6.000;2022-11-20T02:56:30;101309.53;;;0.57;100.00
10806;BME280;5455;53.224;6.000;2022-11-20T02:58:57;101307.59;;;0.62;100.00
10806;BME280;5455;53.224;6.000;2022-11-20T03:01:24;101305.69;;;0.63;100.00
10806;BME280;5455;53.224;6.000;2022-11-20T03:03:51;101297.00;;;0.61;100.00
10806;BME280;5455;53.224;6.000;2022-11-20T03:06:21;101297.56;;;0.63;100.00
10806;BME280;5455;53.224;6.000;2022-11-20T03:08:48;101295.41;;;0.60;100.00
10806;BME280;5455;53.224;6.000;2022-11-20T03:11:15;101294.84;;;0.63;100.00
10806;BME280;5455;53.224;6.000;2022-11-20T03:13:41;101300.75;;;0.70;100.00
10806;BME280;5455;53.224;6.000;2022-11-20T03:16:17;101294.50;;;0.74;100.00
10806;BME280;5455;53.224;6.000;2022-11-20T03:18:45;101299.38;;;0.72;100.00
10806;BME280;5455;53.224;6.000;2022-11-20T03:21:13;101296.09;;;0.75;100.00
10806;BME280;5455;53.224;6.000;2022-11-20T03:23:41;101296.63;;;0.77;100.00
10806;BME280;5455;53.224;6.000;2022-11-20T03:26:16;101299.63;;;0.76;100.00
10806;BME280;5455;53.224;6.000;2022-11-20T03:28:51;101295.00;;;0.76;100.00
10806;BME280;5455;53.224;6.000;2022-11-20T03:31:21;101283.09;;;0.72;100.00
10806;BME280;5455;53.224;6.000;2022-11-20T03:33:49;101282.88;;;0.69;100.00
10806;BME280;5455;53.224;6.000;2022-11-20T03:36:18;101284.44;;;0.75;100.00
10806;BME280;5455;53.224;6.000;2022-11-20T03:38:45;101282.78;;;0.79;100.00
10806;BME280;5455;53.224;6.000;2022-11-20T03:41:18;101270.53;;;0.81;100.00
10806;BME280;5455;53.224;6.000;2022-11-20T03:43:55;101268.94;;;0.80;100.00
10806;BME280;5455;53.224;6.000;2022-11-20T03:46:22;101266.50;;;0.79;100.00
10806;BME280;5455;53.224;6.000;2022-11-20T03:48:49;101257.34;;;0.70;100.00
10806;BME280;5455;53.224;6.000;2022-11-20T03:51:20;101250.66;;;0.57;100.00
10806;BME280;5455;53.224;6.000;2022-11-20T03:53:48;101247.19;;;0.46;100.00
10806;BME280;5455;53.224;6.000;2022-11-20T03:56:17;101254.25;;;0.47;100.00
10806;BME280;5455;53.224;6.000;2022-11-20T03:58:45;101251.81;;;0.51;100.00
10806;BME280;5455;53.224;6.000;2022-11-20T04:01:14;101243.13;;;0.49;100.00
10806;BME280;5455;53.224;6.000;2022-11-20T04:03:43;101235.28;;;0.42;100.00
10806;BME280;5455;53.224;6.000;2022-11-20T04:06:12;101228.56;;;0.35;100.00
10806;BME280;5455;53.224;6.000;2022-11-20T04:08:40;101213.94;;;0.31;100.00
10806;BME280;5455;53.224;6.000;2022-11-20T04:11:29;101216.97;;;0.24;100.00
10806;BME280;5455;53.224;6.000;2022-11-20T04:14:01;101210.25;;;0.17;100.00
10806;BME280;5455;53.224;6.000;2022-11-20T04:16:30;101206.97;;;0.20;100.00
10806;BME280;5455;53.224;6.000;2022-11-20T04:18:59;101197.25;;;0.14;100.00
10806;BME280;5455;53.224;6.000;2022-11-20T04:21:27;101199.47;;;0.07;100.00
10806;BME280;5455;53.224;6.000;2022-11-20T04:23:56;101201.66;;;0.05;100.00
10806;BME280;5455;53.224;6.000;2022-11-20T04:26:26;101203.28;;;0.06;100.00
10806;BME280;5455;53.224;6.000;2022-11-20T04:28:53;101211.69;;;0.04;100.00
10806;BME280;5455;53.224;6.000;2022-11-20T04:31:23;101205.44;;;0.04;100.00
10806;BME280;5455;53.224;6.000;2022-11-20T04:33:50;101203.06;;;-0.03;100.00
10806;BME280;5455;53.224;6.000;2022-11-20T04:36:19;101203.06;;;-0.08;100.00
10806;BME280;5455;53.224;6.000;2022-11-20T04:38:49;101202.25;;;-0.09;100.00
10806;BME280;5455;53.224;6.000;2022-11-20T04:41:24;101196.88;;;-0.14;100.00
10806;BME280;5455;53.224;6.000;2022-11-20T04:43:53;101206.38;;;-0.16;100.00
10806;BME280;5455;53.224;6.000;2022-11-20T04:46:27;101200.72;;;-0.20;100.00
10806;BME280;5455;53.224;6.000;2022-11-20T04:48:54;101199.63;;;-0.24;100.00
10806;BME280;5455;53.224;6.000;2022-11-20T04:51:21;101194.75;;;-0.22;100.00
10806;BME280;5455;53.224;6.000;2022-11-20T04:53:48;101192.56;;;-0.20;100.00
10806;BME280;5455;53.224;6.000;2022-11-20T04:56:16;101192.31;;;-0.18;100.00
10806;BME280;5455;53.224;6.000;2022-11-20T04:58:43;101193.06;;;-0.08;100.00
10806;BME280;5455;53.224;6.000;2022-11-20T05:01:12;101193.31;;;-0.04;100.00
10806;BME280;5455;53.224;6.000;2022-11-20T05:03:41;101193.00;;;-0.03;100.00
10806;BME280;5455;53.224;6.000;2022-11-20T05:06:10;101190.56;;;0.01;100.00
10806;BME280;5455;53.224;6.000;2022-11-20T05:08:37;101192.97;;;0.08;100.00
10806;BME280;5455;53.224;6.000;2022-11-20T05:11:12;101186.69;;;0.12;100.00
10806;BME280;5455;53.224;6.000;2022-11-20T05:13:39;101185.34;;;0.15;100.00
10806;BME280;5455;53.224;6.000;2022-11-20T05:16:09;101182.34;;;0.16;100.00
10806;BME280;5455;53.224;6.000;2022-11-20T05:18:37;101183.16;;;0.17;100.00
10806;BME280;5455;53.224;6.000;2022-11-20T05:21:05;101171.44;;;0.21;100.00
10806;BME280;5455;53.224;6.000;2022-11-20T05:23:33;101171.75;;;0.20;100.00
10806;BME280;5455;53.224;6.000;2022-11-20T05:26:01;101171.69;;;0.25;100.00
10806;BME280;5455;53.224;6.000;2022-11-20T05:28:29;101173.56;;;0.29;100.00
10806;BME280;5455;53.224;6.000;2022-11-20T05:31:07;101172.44;;;0.35;100.00
10806;BME280;5455;53.224;6.000;2022-11-20T05:33:35;101165.63;;;0.38;100.00
10806;BME280;5455;53.224;6.000;2022-11-20T05:36:03;101160.72;;;0.40;100.00
10806;BME280;5455;53.224;6.000;2022-11-20T05:38:31;101162.59;;;0.44;100.00
10806;BME280;5455;53.224;6.000;2022-11-20T05:41:06;101160.34;;;0.51;100.00
10806;BME280;5455;53.224;6.000;2022-11-20T05:43:34;101162.75;;;0.58;100.00
10806;BME280;5455;53.224;6.000;2022-11-20T05:46:02;101169.50;;;0.61;100.00
10806;BME280;5455;53.224;6.000;2022-11-20T05:48:29;101173.28;;;0.65;100.00
10806;BME280;5455;53.224;6.000;2022-11-20T05:50:57;101180.03;;;0.67;100.00
10806;BME280;5455;53.224;6.000;2022-11-20T05:53:25;101175.69;;;0.66;100.00
10806;BME280;5455;53.224;6.000;2022-11-20T05:56:01;101183.81;;;0.66;100.00
10806;BME280;5455;53.224;6.000;2022-11-20T05:58:29;101178.94;;;0.68;100.00
10806;BME280;5455;53.224;6.000;2022-11-20T06:01:07;101184.63;;;0.72;100.00
10806;BME280;5455;53.224;6.000;2022-11-20T06:03:34;101173.75;;;0.72;100.00
10806;BME280;5455;53.224;6.000;2022-11-20T06:06:02;101177.31;;;0.67;100.00
10806;BME280;5455;53.224;6.000;2022-11-20T06:08:30;101170.50;;;0.70;100.00
10806;BME280;5455;53.224;6.000;2022-11-20T06:10:57;101171.06;;;0.72;100.00
10806;BME280;5455;53.224;6.000;2022-11-20T06:13:24;101177.00;;;0.74;100.00
10806;BME280;5455;53.224;6.000;2022-11-20T06:15:52;101182.13;;;0.75;100.00
10806;BME280;5455;53.224;6.000;2022-11-20T06:18:19;101172.63;;;0.78;100.00
10806;BME280;5455;53.224;6.000;2022-11-20T06:20:46;101165.50;;;0.82;100.00
10806;BME280;5455;53.224;6.000;2022-11-20T06:23:13;101175.91;;;0.75;100.00
10806;BME280;5455;53.224;6.000;2022-11-20T06:25:41;101161.56;;;0.69;100.00
10806;BME280;5455;53.224;6.000;2022-11-20T06:28:08;101156.75;;;0.61;100.00
10806;BME280;5455;53.224;6.000;2022-11-20T06:30:36;101152.47;;;0.55;100.00
10806;BME280;5455;53.224;6.000;2022-11-20T06:33:03;101155.22;;;0.50;100.00
10806;BME280;5455;53.224;6.000;2022-11-20T06:35:30;101149.03;;;0.44;100.00
10806;BME280;5455;53.224;6.000;2022-11-20T06:37:56;101155.56;;;0.43;100.00
10806;BME280;5455;53.224;6.000;2022-11-20T06:40:24;101152.91;;;0.38;100.00
10806;BME280;5455;53.224;6.000;2022-11-20T06:42:53;101148.84;;;0.36;100.00
10806;BME280;5455;53.224;6.000;2022-11-20T06:45:21;101152.34;;;0.36;100.00
10806;BME280;5455;53.224;6.000;2022-11-20T06:47:48;101152.66;;;0.35;100.00
10806;BME280;5455;53.224;6.000;2022-11-20T06:50:15;101157.19;;;0.39;100.00
10806;BME280;5455;53.224;6.000;2022-11-20T06:52:41;101162.34;;;0.41;100.00
10806;BME280;5455;53.224;6.000;2022-11-20T06:55:09;101162.59;;;0.44;100.00
10806;BME280;5455;53.224;6.000;2022-11-20T06:57:36;101158.75;;;0.50;100.00
10806;BME280;5455;53.224;6.000;2022-11-20T07:00:03;101161.94;;;0.57;100.00
10806;BME280;5455;53.224;6.000;2022-11-20T07:02:30;101169.00;;;0.59;100.00
10806;BME280;5455;53.224;6.000;2022-11-20T07:04:56;101160.78;;;0.64;100.00
10806;BME280;5455;53.224;6.000;2022-11-20T07:07:24;101159.97;;;0.68;100.00
10806;BME280;5455;53.224;6.000;2022-11-20T07:09:51;101162.09;;;0.71;100.00
10806;BME280;5455;53.224;6.000;2022-11-20T07:12:17;101160.97;;;0.72;100.00
10806;BME280;5455;53.224;6.000;2022-11-20T07:14:44;101166.41;;;0.72;100.00
10806;BME280;5455;53.224;6.000;2022-11-20T07:17:12;101161.78;;;0.73;100.00
10806;BME280;5455;53.224;6.000;2022-11-20T07:19:39;101159.38;;;0.71;100.00
10806;BME280;5455;53.224;6.000;2022-11-20T07:22:06;101158.31;;;0.67;100.00
10806;BME280;5455;53.224;6.000;2022-11-20T07:24:33;101160.19;;;0.72;100.00
10806;BME280;5455;53.224;6.000;2022-11-20T07:27:00;101156.09;;;0.74;100.00
10806;BME280;5455;53.224;6.000;2022-11-20T07:29:27;101150.66;;;0.74;100.00
10806;BME280;5455;53.224;6.000;2022-11-20T07:31:53;101153.72;;;0.68;100.00
10806;BME280;5455;53.224;6.000;2022-11-20T07:34:22;101147.78;;;0.66;100.00
10806;BME280;5455;53.224;6.000;2022-11-20T07:36:49;101142.63;;;0.64;100.00
10806;BME280;5455;53.224;6.000;2022-11-20T07:39:17;101142.38;;;0.61;100.00
10806;BME280;5455;53.224;6.000;2022-11-20T07:41:44;101145.38;;;0.59;100.00
10806;BME280;5455;53.224;6.000;2022-11-20T07:44:11;101132.34;;;0.61;100.00
10806;BME280;5455;53.224;6.000;2022-11-20T07:46:38;101132.63;;;0.60;100.00
10806;BME280;5455;53.224;6.000;2022-11-20T07:49:05;101129.13;;;0.59;100.00
10806;BME280;5455;53.224;6.000;2022-11-20T07:51:32;101124.75;;;0.63;100.00
10806;BME280;5455;53.224;6.000;2022-11-20T07:53:59;101129.28;;;0.68;100.00
10806;BME280;5455;53.224;6.000;2022-11-20T07:56:26;101128.78;;;0.66;100.00
10806;BME280;5455;53.224;6.000;2022-11-20T07:58:53;101118.13;;;0.69;100.00
10806;BME280;5455;53.224;6.000;2022-11-20T08:01:20;101122.78;;;0.69;100.00
10806;BME280;5455;53.224;6.000;2022-11-20T08:03:47;101127.63;;;0.72;100.00
10806;BME280;5455;53.224;6.000;2022-11-20T08:06:14;101129.22;;;0.78;100.00
10806;BME280;5455;53.224;6.000;2022-11-20T08:08:41;101130.78;;;0.84;100.00
10806;BME280;5455;53.224;6.000;2022-11-20T08:11:08;101138.59;;;0.85;100.00
10806;BME280;5455;53.224;6.000;2022-11-20T08:13:54;101133.69;;;0.87;100.00
10806;BME280;5455;53.224;6.000;2022-11-20T08:16:41;101137.97;;;0.93;100.00
10806;BME280;5455;53.224;6.000;2022-11-20T08:19:08;101135.00;;;0.95;100.00
10806;BME280;5455;53.224;6.000;2022-11-20T08:21:35;101138.13;;;1.07;100.00
10806;BME280;5455;53.224;6.000;2022-11-20T08:24:04;101130.22;;;1.10;100.00
10806;BME280;5455;53.224;6.000;2022-11-20T08:26:31;101128.00;;;1.13;100.00
10806;BME280;5455;53.224;6.000;2022-11-20T08:28:58;101128.16;;;1.21;100.00
10806;BME280;5455;53.224;6.000;2022-11-20T08:31:26;101134.88;;;1.29;100.00
10806;BME280;5455;53.224;6.000;2022-11-20T08:33:53;101140.41;;;1.42;100.00
10806;BME280;5455;53.224;6.000;2022-11-20T08:36:22;101138.88;;;1.55;100.00
10806;BME280;5455;53.224;6.000;2022-11-20T08:38:53;101134.41;;;1.64;100.00
10806;BME280;5455;53.224;6.000;2022-11-20T08:41:20;101137.38;;;1.67;100.00
10806;BME280;5455;53.224;6.000;2022-11-20T08:43:56;101139.41;;;1.76;100.00
10806;BME280;5455;53.224;6.000;2022-11-20T08:46:28;101136.94;;;1.79;100.00
10806;BME280;5455;53.224;6.000;2022-11-20T08:48:57;101132.22;;;1.85;100.00
10806;BME280;5455;53.224;6.000;2022-11-20T08:51:24;101136.56;;;1.86;100.00
10806;BME280;5455;53.224;6.000;2022-11-20T08:53:51;101140.16;;;2.00;100.00
10806;BME280;5455;53.224;6.000;2022-11-20T08:56:18;101139.94;;;2.15;100.00
10806;BME280;5455;53.224;6.000;2022-11-20T08:58:45;101142.28;;;2.21;100.00
10806;BME280;5455;53.224;6.000;2022-11-20T09:01:31;101147.13;;;2.25;100.00
10806;BME280;5455;53.224;6.000;2022-11-20T09:03:58;101152.97;;;2.32;100.00
10806;BME280;5455;53.224;6.000;2022-11-20T09:06:26;101150.41;;;2.40;100.00
10806;BME280;5455;53.224;6.000;2022-11-20T09:08:54;101155.03;;;2.40;100.00
10806;BME280;5455;53.224;6.000;2022-11-20T09:11:21;101155.78;;;2.45;100.00
10806;BME280;5455;53.224;6.000;2022-11-20T09:13:48;101141.34;;;2.45;100.00
10806;BME280;5455;53.224;6.000;2022-11-20T09:16:15;101146.66;;;2.36;100.00
10806;BME280;5455;53.224;6.000;2022-11-20T09:18:42;101148.34;;;2.32;100.00
10806;BME280;5455;53.224;6.000;2022-11-20T09:21:11;101145.63;;;2.32;100.00
10806;BME280;5455;53.224;6.000;2022-11-20T09:23:39;101141.22;;;2.36;100.00
10806;BME280;5455;53.224;6.000;2022-11-20T09:26:11;101132.09;;;2.46;100.00
10806;BME280;5455;53.224;6.000;2022-11-20T09:28:39;101135.91;;;2.45;100.00
10806;BME280;5455;53.224;6.000;2022-11-20T09:31:22;101125.84;;;2.45;100.00
10806;BME280;5455;53.224;6.000;2022-11-20T09:33:49;101130.31;;;2.55;100.00
10806;BME280;5455;53.224;6.000;2022-11-20T09:36:16;101133.16;;;2.63;100.00
10806;BME280;5455;53.224;6.000;2022-11-20T09:38:45;101128.78;;;2.62;100.00
10806;BME280;5455;53.224;6.000;2022-11-20T09:42:01;101121.44;;;2.63;100.00
10806;BME280;5455;53.224;6.000;2022-11-20T09:47:11;101126.19;;;2.71;100.00
10806;BME280;5455;53.224;6.000;2022-11-20T09:50:14;101128.41;;;2.83;100.00
10806;BME280;5455;53.224;6.000;2022-11-20T09:53:03;101125.69;;;2.83;100.00
10806;BME280;5455;53.224;6.000;2022-11-20T09:55:35;101121.66;;;2.80;100.00
10806;BME280;5455;53.224;6.000;2022-11-20T09:58:15;101116.00;;;2.76;100.00
10806;BME280;5455;53.224;6.000;2022-11-20T10:00:43;101112.09;;;2.83;100.00
10806;BME280;5455;53.224;6.000;2022-11-20T10:03:17;101113.00;;;2.92;100.00
10806;BME280;5455;53.224;6.000;2022-11-20T10:05:49;101119.06;;;2.89;100.00
10806;BME280;5455;53.224;6.000;2022-11-20T10:08:25;101108.97;;;2.89;100.00
10806;BME280;5455;53.224;6.000;2022-11-20T10:14:09;101103.16;;;3.09;100.00
10806;BME280;5455;53.224;6.000;2022-11-20T10:16:56;101102.84;;;3.11;100.00
10806;BME280;5455;53.224;6.000;2022-11-20T10:19:52;101096.19;;;3.17;100.00
10806;BME280;5455;53.224;6.000;2022-11-20T10:25:20;101104.00;;;3.46;100.00
10806;BME280;5455;53.224;6.000;2022-11-20T10:30:59;101101.59;;;3.44;100.00
10806;BME280;5455;53.224;6.000;2022-11-20T10:33:31;101100.91;;;3.39;100.00
10806;BME280;5455;53.224;6.000;2022-11-20T10:36:50;101092.31;;;3.31;100.00
10806;BME280;5455;53.224;6.000;2022-11-20T10:39:24;101079.72;;;3.36;100.00
10806;BME280;5455;53.224;6.000;2022-11-20T10:41:52;101071.31;;;3.46;100.00
10806;BME280;5455;53.224;6.000;2022-11-20T10:44:24;101066.75;;;3.55;100.00
10806;BME280;5455;53.224;6.000;2022-11-20T10:47:16;101063.25;;;3.41;100.00
10806;BME280;5455;53.224;6.000;2022-11-20T10:49:47;101068.22;;;3.39;100.00
10806;BME280;5455;53.224;6.000;2022-11-20T10:52:27;101062.50;;;3.49;100.00
10806;BME280;5455;53.224;6.000;2022-11-20T11:00:21;101058.75;;;3.72;100.00
10806;BME280;5455;53.224;6.000;2022-11-20T11:02:49;101052.97;;;3.73;100.00
10806;BME280;5455;53.224;6.000;2022-11-20T11:07:49;101044.28;;;3.71;98.32
10806;BME280;5455;53.224;6.000;2022-11-20T11:13:05;101041.25;;;3.73;95.41
10806;BME280;5455;53.224;6.000;2022-11-20T11:15:40;101042.38;;;3.72;93.80
10806;BME280;5455;53.224;6.000;2022-11-20T11:18:09;101056.75;;;3.86;93.50
10806;BME280;5455;53.224;6.000;2022-11-20T11:20:37;101045.47;;;4.01;92.56
10806;BME280;5455;53.224;6.000;2022-11-20T11:23:05;101037.97;;;4.07;90.02
10806;BME280;5455;53.224;6.000;2022-11-20T11:25:37;101035.19;;;3.98;88.80
10806;BME280;5455;53.224;6.000;2022-11-20T11:28:20;101027.31;;;3.97;87.03
10806;BME280;5455;53.224;6.000;2022-11-20T11:30:47;101022.09;;;4.09;86.97
10806;BME280;5455;53.224;6.000;2022-11-20T11:35:52;101011.50;;;4.07;83.03
10806;BME280;5455;53.224;6.000;2022-11-20T11:38:35;101005.56;;;4.05;80.66
10806;BME280;5455;53.224;6.000;2022-11-20T11:41:04;101004.44;;;4.06;81.52
10806;BME280;5455;53.224;6.000;2022-11-20T11:43:34;100991.84;;;3.97;80.94
10806;BME280;5455;53.224;6.000;2022-11-20T11:51:45;100982.88;;;3.74;80.92
10806;BME280;5455;53.224;6.000;2022-11-20T11:54:22;100977.66;;;3.64;80.90
10806;BME280;5455;53.224;6.000;2022-11-20T11:56:51;100968.13;;;3.53;81.93
10806;BME280;5455;53.224;6.000;2022-11-20T11:59:28;100970.03;;;3.52;83.19
10806;BME280;5455;53.224;6.000;2022-11-20T12:02:02;100968.75;;;3.50;84.48
10806;BME280;5455;53.224;6.000;2022-11-20T12:04:44;100968.25;;;3.48;84.22
10806;BME280;5455;53.224;6.000;2022-11-20T12:07:20;100966.44;;;3.43;83.60
10806;BME280;5455;53.224;6.000;2022-11-20T12:10:19;100972.09;;;3.47;82.96
10806;BME280;5455;53.224;6.000;2022-11-20T12:12:52;100967.63;;;3.51;82.06
10806;BME280;5455;53.224;6.000;2022-11-20T12:15:26;100972.47;;;3.54;82.11
10806;BME280;5455;53.224;6.000;2022-11-20T12:17:55;100976.06;;;3.63;82.15
10806;BME280;5455;53.224;6.000;2022-11-20T12:20:26;100964.34;;;3.62;82.65
10806;BME280;5455;53.224;6.000;2022-11-20T12:23:09;100958.09;;;3.62;82.10
10806;BME280;5455;53.224;6.000;2022-11-20T12:25:43;100950.25;;;3.60;81.96
10806;BME280;5455;53.224;6.000;2022-11-20T12:34:16;100945.31;;;3.71;79.21
10806;BME280;5455;53.224;6.000;2022-11-20T12:39:43;100942.13;;;3.69;78.19
10806;BME280;5455;53.224;6.000;2022-11-20T13:08:11;100906.22;;;3.75;80.77
10806;BME280;5455;53.224;6.000;2022-11-20T13:16:41;100896.97;;;3.85;81.59
10806;BME280;5455;53.224;6.000;2022-11-20T13:19:13;100887.53;;;3.91;81.96
10806;BME280;5455;53.224;6.000;2022-11-20T13:21:43;100885.97;;;3.99;83.43
10806;BME280;5455;53.224;6.000;2022-11-20T13:26:46;100887.63;;;4.08;83.36
10806;BME280;5455;53.224;6.000;2022-11-20T13:29:18;100873.34;;;4.11;83.83
10806;BME280;5455;53.224;6.000;2022-11-20T13:31:47;100866.59;;;4.09;83.74
10806;BME280;5455;53.224;6.000;2022-11-20T13:34:25;100871.03;;;3.96;82.34
10806;BME280;5455;53.224;6.000;2022-11-20T13:36:55;100873.44;;;3.98;82.17
10806;BME280;5455;53.224;6.000;2022-11-20T13:39:34;100861.88;;;3.92;81.30
10806;BME280;5455;53.224;6.000;2022-11-20T13:44:39;100850.13;;;3.83;80.55
10806;BME280;5455;53.224;6.000;2022-11-20T13:49:48;100837.31;;;3.92;80.48
10806;BME280;5455;53.224;6.000;2022-11-20T13:58:25;100814.06;;;3.95;80.98
10806;BME280;5455;53.224;6.000;2022-11-20T14:01:07;100814.88;;;3.95;81.86
10806;BME280;5455;53.224;6.000;2022-11-20T14:03:35;100824.16;;;3.94;82.70
10806;BME280;5455;53.224;6.000;2022-11-20T14:06:31;100826.25;;;3.88;81.88
10806;BME280;5455;53.224;6.000;2022-11-20T14:08:59;100814.81;;;3.78;81.69
10806;BME280;5455;53.224;6.000;2022-11-20T14:11:30;100808.69;;;3.72;82.01
10806;BME280;5455;53.224;6.000;2022-11-20T14:14:03;100807.38;;;3.70;82.87
10806;BME280;5455;53.224;6.000;2022-11-20T14:16:33;100798.38;;;3.61;82.80
10806;BME280;5455;53.224;6.000;2022-11-20T14:21:52;100786.78;;;3.55;83.15
10806;BME280;5455;53.224;6.000;2022-11-20T14:24:24;100786.13;;;3.50;83.77
10806;BME280;5455;53.224;6.000;2022-11-20T14:26:52;100788.84;;;3.50;84.46
10806;BME280;5455;53.224;6.000;2022-11-20T14:29:22;100785.13;;;3.46;83.98
10806;BME280;5455;53.224;6.000;2022-11-20T14:31:52;100783.03;;;3.43;84.27
10806;BME280;5455;53.224;6.000;2022-11-20T14:34:32;100778.91;;;3.45;84.68
10806;BME280;5455;53.224;6.000;2022-11-20T14:37:06;100769.75;;;3.41;84.33
10806;BME280;5455;53.224;6.000;2022-11-20T14:39:48;100763.97;;;3.43;84.91
10806;BME280;5455;53.224;6.000;2022-11-20T14:42:26;100764.56;;;3.31;84.07
10806;BME280;5455;53.224;6.000;2022-11-20T14:44:58;100762.25;;;3.24;84.73
10806;BME280;5455;53.224;6.000;2022-11-20T14:47:29;100768.72;;;3.28;85.39
10806;BME280;5455;53.224;6.000;2022-11-20T14:49:57;100768.41;;;3.30;85.51
10806;BME280;5455;53.224;6.000;2022-11-20T14:52:27;100760.72;;;3.32;84.57
10806;BME280;5455;53.224;6.000;2022-11-20T14:54:56;100755.28;;;3.32;84.59
10806;BME280;5455;53.224;6.000;2022-11-20T14:57:35;100755.41;;;3.27;84.72